Terminal Aerodrome Forecast
Issued by NWS Mt. Holly, NJ

Home | Current Version | Previous Version | Text Only | Print | Product List | Glossary On
Versions: 1 2 3 4 5 6 7 8 9 10 11 12 13 14 15 16 17 18 19 20 21 22 23
000
FTUS41 KPHI 301728
TAFABE
TAF
KABE 301728Z 3018/3118 16004KT P6SM BKN100 BKN250
     FM310000 11005KT P6SM OVC050
     FM310400 12005KT P6SM BKN025 OVC050 PROB30 3104/3106 4SM -RA
      OVC015
     FM310600 10007KT 4SM -RA BR OVC005
     FM311200 08010KT 2SM RA BR BKN003 OVC010=

USA.gov is the U.S. government's official web portal to all federal, state and local government web resources and services.